KPIB/PIB METAR and TAF weather

Enter ICAO airport designator
Station Type Date Time Source
KPIB METAR 2019/10/15 08:38 UTC NOAA

KPIB 150838Z AUTO 05004KT 6SM -RA BR SCT002 SCT007 OVC038 19/19 A3004 RMK AO2 PNO $


Station Type Date Time Source
KPIB Decoded METAR 2019/10/15 08:38 UTC NOAA

Hattiesburg/Laurel, Hattiesburg-Laurel Regional Airport, MS, United States (KPIB) 31-28N 089-20W
Oct 15, 2019 - 04:38 AM EDT / 2019.10.15 0838 UTC
Wind: from the NE (050 degrees) at 5 MPH (4 KT):0
Visibility: 6 mile(s):0
Sky conditions: overcast
Weather: light rain; mist
Temperature: 66 F (19 C)
Dew Point: 66 F (19 C)
Relative Humidity: 100%
Pressure (altimeter): 30.04 in. Hg (1017 hPa)
ob: KPIB 150838Z AUTO 05004KT 6SM -RA BR SCT002 SCT007 OVC038 19/19 A3004 RMK AO2 PNO
cycle: 8

Station Type Date Time Source
KPIB TAF 2019/10/15 06:42 UTC NOAA

TAF KPIB 150540Z 1506/1606 09003KT 5SM -RA BR OVC004
FM150900 11003KT 2SM -RA BR OVC003
FM151800 17006KT P6SM VCSH BKN012
FM152000 17006KT P6SM SHRA VCTS SCT015 BKN025CB

Example: see airport list